sensor_id;sensor_type;location;lat;lon;timestamp;temperature;humidity
13389;DHT22;6764;53.250;10.410;2023-11-22T00:01:20;4.90;99.90
13389;DHT22;6764;53.250;10.410;2023-11-22T00:03:45;4.90;99.90
13389;DHT22;6764;53.250;10.410;2023-11-22T00:06:11;4.90;99.90
13389;DHT22;6764;53.250;10.410;2023-11-22T00:08:37;4.90;99.90
13389;DHT22;6764;53.250;10.410;2023-11-22T00:11:03;4.80;99.90
13389;DHT22;6764;53.250;10.410;2023-11-22T00:13:29;4.80;99.90
13389;DHT22;6764;53.250;10.410;2023-11-22T00:15:54;4.70;99.90
13389;DHT22;6764;53.250;10.410;2023-11-22T00:18:21;4.70;99.90
13389;DHT22;6764;53.250;10.410;2023-11-22T00:20:46;4.60;99.90
13389;DHT22;6764;53.250;10.410;2023-11-22T00:23:14;4.60;99.90
13389;DHT22;6764;53.250;10.410;2023-11-22T00:25:39;4.60;99.90
13389;DHT22;6764;53.250;10.410;2023-11-22T00:28:05;4.60;99.90
13389;DHT22;6764;53.250;10.410;2023-11-22T00:30:32;4.40;99.90
13389;DHT22;6764;53.250;10.410;2023-11-22T00:32:58;4.40;99.90
13389;DHT22;6764;53.250;10.410;2023-11-22T00:35:23;4.50;99.90
13389;DHT22;6764;53.250;10.410;2023-11-22T00:37:49;4.30;99.90
13389;DHT22;6764;53.250;10.410;2023-11-22T00:40:14;4.30;99.90
13389;DHT22;6764;53.250;10.410;2023-11-22T00:42:40;4.20;99.90
13389;DHT22;6764;53.250;10.410;2023-11-22T00:45:08;4.20;99.90
13389;DHT22;6764;53.250;10.410;2023-11-22T00:47:35;4.30;99.90
13389;DHT22;6764;53.250;10.410;2023-11-22T00:50:02;4.20;99.90
13389;DHT22;6764;53.250;10.410;2023-11-22T00:52:30;4.10;99.90
13389;DHT22;6764;53.250;10.410;2023-11-22T00:54:55;4.20;99.90
13389;DHT22;6764;53.250;10.410;2023-11-22T00:57:21;4.20;99.90
13389;DHT22;6764;53.250;10.410;2023-11-22T00:59:47;4.20;99.90
13389;DHT22;6764;53.250;10.410;2023-11-22T01:02:13;4.10;99.90
13389;DHT22;6764;53.250;10.410;2023-11-22T01:04:39;4.00;99.90
13389;DHT22;6764;53.250;10.410;2023-11-22T01:07:05;4.10;99.90
13389;DHT22;6764;53.250;10.410;2023-11-22T01:09:32;4.10;99.90
13389;DHT22;6764;53.250;10.410;2023-11-22T01:11:58;4.20;99.90
13389;DHT22;6764;53.250;10.410;2023-11-22T01:14:24;4.10;99.90
13389;DHT22;6764;53.250;10.410;2023-11-22T01:16:49;3.90;99.90
13389;DHT22;6764;53.250;10.410;2023-11-22T01:19:15;3.90;99.90
13389;DHT22;6764;53.250;10.410;2023-11-22T01:21:41;3.80;99.90
13389;DHT22;6764;53.250;10.410;2023-11-22T01:24:07;3.80;99.90
13389;DHT22;6764;53.250;10.410;2023-11-22T01:26:33;3.70;99.90
13389;DHT22;6764;53.250;10.410;2023-11-22T01:28:58;3.80;99.90
13389;DHT22;6764;53.250;10.410;2023-11-22T01:31:26;3.80;99.90
13389;DHT22;6764;53.250;10.410;2023-11-22T01:33:53;3.80;99.90
13389;DHT22;6764;53.250;10.410;2023-11-22T01:36:19;3.90;99.90
13389;DHT22;6764;53.250;10.410;2023-11-22T01:38:44;3.80;99.90
13389;DHT22;6764;53.250;10.410;2023-11-22T01:41:12;3.80;99.90
13389;DHT22;6764;53.250;10.410;2023-11-22T01:43:39;3.80;99.90
13389;DHT22;6764;53.250;10.410;2023-11-22T01:46:08;3.80;99.90
13389;DHT22;6764;53.250;10.410;2023-11-22T01:48:36;3.80;99.90
13389;DHT22;6764;53.250;10.410;2023-11-22T01:51:03;3.70;99.90
13389;DHT22;6764;53.250;10.410;2023-11-22T01:53:29;3.80;99.90
13389;DHT22;6764;53.250;10.410;2023-11-22T01:55:56;3.80;99.90
13389;DHT22;6764;53.250;10.410;2023-11-22T01:58:22;3.90;99.90
13389;DHT22;6764;53.250;10.410;2023-11-22T02:00:50;4.00;99.90
13389;DHT22;6764;53.250;10.410;2023-11-22T02:03:17;4.00;99.90
13389;DHT22;6764;53.250;10.410;2023-11-22T02:05:43;4.00;99.90
13389;DHT22;6764;53.250;10.410;2023-11-22T02:08:10;4.10;99.90
13389;DHT22;6764;53.250;10.410;2023-11-22T02:10:36;4.10;99.90
13389;DHT22;6764;53.250;10.410;2023-11-22T02:13:05;4.10;99.90
13389;DHT22;6764;53.250;10.410;2023-11-22T02:15:33;4.00;99.90
13389;DHT22;6764;53.250;10.410;2023-11-22T02:17:59;4.00;99.90
13389;DHT22;6764;53.250;10.410;2023-11-22T02:20:25;4.10;99.90
13389;DHT22;6764;53.250;10.410;2023-11-22T02:22:51;4.00;99.90
13389;DHT22;6764;53.250;10.410;2023-11-22T02:25:18;4.00;99.90
13389;DHT22;6764;53.250;10.410;2023-11-22T02:27:44;4.00;99.90
13389;DHT22;6764;53.250;10.410;2023-11-22T02:30:10;4.10;99.90
13389;DHT22;6764;53.250;10.410;2023-11-22T02:32:36;4.00;99.90
13389;DHT22;6764;53.250;10.410;2023-11-22T02:35:02;3.90;99.90
13389;DHT22;6764;53.250;10.410;2023-11-22T02:37:32;3.80;99.90
13389;DHT22;6764;53.250;10.410;2023-11-22T02:40:06;3.80;99.90
13389;DHT22;6764;53.250;10.410;2023-11-22T02:42:34;3.80;99.90
13389;DHT22;6764;53.250;10.410;2023-11-22T02:45:00;3.90;99.90
13389;DHT22;6764;53.250;10.410;2023-11-22T02:47:26;3.80;99.90
13389;DHT22;6764;53.250;10.410;2023-11-22T02:49:51;3.70;99.90
13389;DHT22;6764;53.250;10.410;2023-11-22T02:52:17;3.70;99.90
13389;DHT22;6764;53.250;10.410;2023-11-22T02:54:43;3.80;99.90
13389;DHT22;6764;53.250;10.410;2023-11-22T02:57:11;3.80;99.90
13389;DHT22;6764;53.250;10.410;2023-11-22T02:59:37;3.90;99.90
13389;DHT22;6764;53.250;10.410;2023-11-22T03:02:03;3.80;99.90
13389;DHT22;6764;53.250;10.410;2023-11-22T03:04:28;3.80;99.90
13389;DHT22;6764;53.250;10.410;2023-11-22T03:06:54;3.80;99.90
13389;DHT22;6764;53.250;10.410;2023-11-22T03:09:20;3.80;99.90
13389;DHT22;6764;53.250;10.410;2023-11-22T03:11:48;3.80;99.90
13389;DHT22;6764;53.250;10.410;2023-11-22T03:14:14;3.70;99.90
13389;DHT22;6764;53.250;10.410;2023-11-22T03:16:41;3.60;99.90
13389;DHT22;6764;53.250;10.410;2023-11-22T03:19:08;3.50;99.90
13389;DHT22;6764;53.250;10.410;2023-11-22T03:21:33;3.50;99.90
13389;DHT22;6764;53.250;10.410;2023-11-22T03:24:01;3.50;99.90
13389;DHT22;6764;53.250;10.410;2023-11-22T03:26:29;3.70;99.90
13389;DHT22;6764;53.250;10.410;2023-11-22T03:28:55;3.70;99.90
13389;DHT22;6764;53.250;10.410;2023-11-22T03:31:20;3.60;99.90
13389;DHT22;6764;53.250;10.410;2023-11-22T03:33:47;3.50;99.90
13389;DHT22;6764;53.250;10.410;2023-11-22T03:36:12;3.50;99.90
13389;DHT22;6764;53.250;10.410;2023-11-22T03:38:39;3.50;99.90
13389;DHT22;6764;53.250;10.410;2023-11-22T03:41:05;3.50;99.90
13389;DHT22;6764;53.250;10.410;2023-11-22T03:43:31;3.50;99.90
13389;DHT22;6764;53.250;10.410;2023-11-22T03:45:56;3.60;99.90
13389;DHT22;6764;53.250;10.410;2023-11-22T03:48:22;3.60;99.90
13389;DHT22;6764;53.250;10.410;2023-11-22T03:50:49;3.60;99.90
13389;DHT22;6764;53.250;10.410;2023-11-22T03:53:15;3.70;99.90
13389;DHT22;6764;53.250;10.410;2023-11-22T03:55:40;3.60;99.90
13389;DHT22;6764;53.250;10.410;2023-11-22T03:58:06;3.70;99.90
13389;DHT22;6764;53.250;10.410;2023-11-22T04:00:33;3.60;99.90
13389;DHT22;6764;53.250;10.410;2023-11-22T04:02:59;3.50;99.90
13389;DHT22;6764;53.250;10.410;2023-11-22T04:05:27;3.60;99.90
13389;DHT22;6764;53.250;10.410;2023-11-22T04:07:53;3.60;99.90
13389;DHT22;6764;53.250;10.410;2023-11-22T04:10:19;3.60;99.90
13389;DHT22;6764;53.250;10.410;2023-11-22T04:12:46;3.50;99.90
13389;DHT22;6764;53.250;10.410;2023-11-22T04:15:13;3.50;99.90
13389;DHT22;6764;53.250;10.410;2023-11-22T04:17:39;3.40;99.90
13389;DHT22;6764;53.250;10.410;2023-11-22T04:20:07;3.50;99.90
13389;DHT22;6764;53.250;10.410;2023-11-22T04:22:40;3.40;99.90
13389;DHT22;6764;53.250;10.410;2023-11-22T04:25:07;3.30;99.90
13389;DHT22;6764;53.250;10.410;2023-11-22T04:27:34;3.20;99.90
13389;DHT22;6764;53.250;10.410;2023-11-22T04:29:59;3.30;99.90
13389;DHT22;6764;53.250;10.410;2023-11-22T04:32:25;3.30;99.90
13389;DHT22;6764;53.250;10.410;2023-11-22T04:34:51;3.30;99.90
13389;DHT22;6764;53.250;10.410;2023-11-22T04:37:16;3.40;99.90
13389;DHT22;6764;53.250;10.410;2023-11-22T04:39:42;3.40;99.90
13389;DHT22;6764;53.250;10.410;2023-11-22T04:42:08;3.30;99.90
13389;DHT22;6764;53.250;10.410;2023-11-22T04:44:33;3.30;99.90
13389;DHT22;6764;53.250;10.410;2023-11-22T04:46:59;3.40;99.90
13389;DHT22;6764;53.250;10.410;2023-11-22T04:49:25;3.30;99.90
13389;DHT22;6764;53.250;10.410;2023-11-22T04:51:51;3.20;99.90
13389;DHT22;6764;53.250;10.410;2023-11-22T04:54:16;3.20;99.90
13389;DHT22;6764;53.250;10.410;2023-11-22T04:56:42;3.30;99.90
13389;DHT22;6764;53.250;10.410;2023-11-22T04:59:08;3.30;99.90
13389;DHT22;6764;53.250;10.410;2023-11-22T05:01:34;3.40;99.90
13389;DHT22;6764;53.250;10.410;2023-11-22T05:04:00;3.20;99.90
13389;DHT22;6764;53.250;10.410;2023-11-22T05:06:26;3.10;99.90
13389;DHT22;6764;53.250;10.410;2023-11-22T05:08:53;3.00;99.90
13389;DHT22;6764;53.250;10.410;2023-11-22T05:11:19;3.00;99.90
13389;DHT22;6764;53.250;10.410;2023-11-22T05:13:44;3.10;99.90
13389;DHT22;6764;53.250;10.410;2023-11-22T05:16:10;3.10;99.90
13389;DHT22;6764;53.250;10.410;2023-11-22T05:18:36;3.10;99.90
13389;DHT22;6764;53.250;10.410;2023-11-22T05:21:04;3.10;99.90
13389;DHT22;6764;53.250;10.410;2023-11-22T05:23:30;2.90;99.90
13389;DHT22;6764;53.250;10.410;2023-11-22T05:25:59;2.90;99.90
13389;DHT22;6764;53.250;10.410;2023-11-22T05:28:25;2.90;99.90
13389;DHT22;6764;53.250;10.410;2023-11-22T05:30:51;2.90;99.90
13389;DHT22;6764;53.250;10.410;2023-11-22T05:33:16;2.90;99.90
13389;DHT22;6764;53.250;10.410;2023-11-22T05:35:42;2.90;99.90
13389;DHT22;6764;53.250;10.410;2023-11-22T05:38:08;2.90;99.90
13389;DHT22;6764;53.250;10.410;2023-11-22T05:40:34;2.90;99.90
13389;DHT22;6764;53.250;10.410;2023-11-22T05:42:59;2.90;99.90
13389;DHT22;6764;53.250;10.410;2023-11-22T05:45:25;2.90;99.90
13389;DHT22;6764;53.250;10.410;2023-11-22T05:47:51;2.70;99.90
13389;DHT22;6764;53.250;10.410;2023-11-22T05:50:17;2.80;99.90
13389;DHT22;6764;53.250;10.410;2023-11-22T05:52:43;2.70;99.90
13389;DHT22;6764;53.250;10.410;2023-11-22T05:55:10;2.60;99.90
13389;DHT22;6764;53.250;10.410;2023-11-22T05:57:35;2.50;99.90
13389;DHT22;6764;53.250;10.410;2023-11-22T06:00:02;2.40;99.90
13389;DHT22;6764;53.250;10.410;2023-11-22T06:02:28;2.40;99.90
13389;DHT22;6764;53.250;10.410;2023-11-22T06:04:53;2.40;99.90
13389;DHT22;6764;53.250;10.410;2023-11-22T06:07:19;2.30;99.90
13389;DHT22;6764;53.250;10.410;2023-11-22T06:09:44;2.20;99.90
13389;DHT22;6764;53.250;10.410;2023-11-22T06:12:10;2.10;99.90
13389;DHT22;6764;53.250;10.410;2023-11-22T06:14:36;2.00;99.90
13389;DHT22;6764;53.250;10.410;2023-11-22T06:17:01;2.00;99.90
13389;DHT22;6764;53.250;10.410;2023-11-22T06:19:28;2.00;99.90
13389;DHT22;6764;53.250;10.410;2023-11-22T06:21:54;2.10;99.90
13389;DHT22;6764;53.250;10.410;2023-11-22T06:24:19;2.10;99.90
13389;DHT22;6764;53.250;10.410;2023-11-22T06:26:45;2.00;99.90
13389;DHT22;6764;53.250;10.410;2023-11-22T06:29:15;2.00;99.90
13389;DHT22;6764;53.250;10.410;2023-11-22T06:31:40;2.00;99.90
13389;DHT22;6764;53.250;10.410;2023-11-22T06:34:06;2.00;99.90
13389;DHT22;6764;53.250;10.410;2023-11-22T06:36:31;2.00;99.90
13389;DHT22;6764;53.250;10.410;2023-11-22T06:38:58;2.10;99.90
13389;DHT22;6764;53.250;10.410;2023-11-22T06:41:24;2.10;99.90
13389;DHT22;6764;53.250;10.410;2023-11-22T06:43:49;2.20;99.90
13389;DHT22;6764;53.250;10.410;2023-11-22T06:46:15;2.30;99.90
13389;DHT22;6764;53.250;10.410;2023-11-22T06:48:44;2.30;99.90
13389;DHT22;6764;53.250;10.410;2023-11-22T06:51:10;2.40;99.90
13389;DHT22;6764;53.250;10.410;2023-11-22T06:53:35;2.50;99.90
13389;DHT22;6764;53.250;10.410;2023-11-22T06:56:01;2.50;99.90
13389;DHT22;6764;53.250;10.410;2023-11-22T06:58:27;2.50;99.90
13389;DHT22;6764;53.250;10.410;2023-11-22T07:00:52;2.40;99.90
13389;DHT22;6764;53.250;10.410;2023-11-22T07:03:18;2.40;99.90
13389;DHT22;6764;53.250;10.410;2023-11-22T07:05:44;2.30;99.90
13389;DHT22;6764;53.250;10.410;2023-11-22T07:08:10;2.30;99.90
13389;DHT22;6764;53.250;10.410;2023-11-22T07:10:38;2.30;99.90
13389;DHT22;6764;53.250;10.410;2023-11-22T07:13:04;2.30;99.90
13389;DHT22;6764;53.250;10.410;2023-11-22T07:15:30;2.40;99.90
13389;DHT22;6764;53.250;10.410;2023-11-22T07:17:56;2.40;99.90
13389;DHT22;6764;53.250;10.410;2023-11-22T07:20:21;2.40;99.90
13389;DHT22;6764;53.250;10.410;2023-11-22T07:22:49;2.40;99.90
13389;DHT22;6764;53.250;10.410;2023-11-22T07:25:20;2.40;99.90
13389;DHT22;6764;53.250;10.410;2023-11-22T07:27:50;2.40;99.90
13389;DHT22;6764;53.250;10.410;2023-11-22T07:30:16;2.50;99.90
13389;DHT22;6764;53.250;10.410;2023-11-22T07:32:44;2.50;99.90
13389;DHT22;6764;53.250;10.410;2023-11-22T07:35:10;2.40;99.90
13389;DHT22;6764;53.250;10.410;2023-11-22T07:37:37;2.40;99.90
13389;DHT22;6764;53.250;10.410;2023-11-22T07:40:08;2.50;99.90
13389;DHT22;6764;53.250;10.410;2023-11-22T07:42:36;2.60;99.90
13389;DHT22;6764;53.250;10.410;2023-11-22T07:45:01;2.70;99.90
13389;DHT22;6764;53.250;10.410;2023-11-22T07:47:27;2.80;99.90
13389;DHT22;6764;53.250;10.410;2023-11-22T07:49:54;2.90;99.90
13389;DHT22;6764;53.250;10.410;2023-11-22T07:52:21;2.80;99.90
13389;DHT22;6764;53.250;10.410;2023-11-22T07:54:47;2.80;99.90
13389;DHT22;6764;53.250;10.410;2023-11-22T07:57:13;2.80;99.90
13389;DHT22;6764;53.250;10.410;2023-11-22T07:59:39;2.70;99.90
13389;DHT22;6764;53.250;10.410;2023-11-22T08:02:05;2.70;99.90
13389;DHT22;6764;53.250;10.410;2023-11-22T08:04:36;2.80;99.90
13389;DHT22;6764;53.250;10.410;2023-11-22T08:07:03;2.90;99.90
13389;DHT22;6764;53.250;10.410;2023-11-22T08:09:29;3.00;99.90
13389;DHT22;6764;53.250;10.410;2023-11-22T08:11:58;3.10;99.90
13389;DHT22;6764;53.250;10.410;2023-11-22T08:14:26;3.10;99.90
13389;DHT22;6764;53.250;10.410;2023-11-22T08:16:53;3.20;99.90
13389;DHT22;6764;53.250;10.410;2023-11-22T08:19:19;3.20;99.90
13389;DHT22;6764;53.250;10.410;2023-11-22T08:21:44;3.20;99.90
13389;DHT22;6764;53.250;10.410;2023-11-22T08:24:10;3.30;99.90
13389;DHT22;6764;53.250;10.410;2023-11-22T08:26:38;3.30;99.90
13389;DHT22;6764;53.250;10.410;2023-11-22T08:29:04;3.20;99.90
13389;DHT22;6764;53.250;10.410;2023-11-22T08:31:30;3.30;99.90
13389;DHT22;6764;53.250;10.410;2023-11-22T08:33:56;3.50;99.90
13389;DHT22;6764;53.250;10.410;2023-11-22T08:36:22;3.40;99.90
13389;DHT22;6764;53.250;10.410;2023-11-22T08:38:49;3.40;99.90
13389;DHT22;6764;53.250;10.410;2023-11-22T08:41:15;3.40;99.90
13389;DHT22;6764;53.250;10.410;2023-11-22T08:43:41;3.60;99.90
13389;DHT22;6764;53.250;10.410;2023-11-22T08:46:06;3.50;99.90
13389;DHT22;6764;53.250;10.410;2023-11-22T08:48:33;3.60;99.90
13389;DHT22;6764;53.250;10.410;2023-11-22T08:51:00;3.60;99.90
13389;DHT22;6764;53.250;10.410;2023-11-22T08:53:26;3.60;99.90
13389;DHT22;6764;53.250;10.410;2023-11-22T08:55:52;3.70;99.90
13389;DHT22;6764;53.250;10.410;2023-11-22T08:58:20;3.90;99.90
13389;DHT22;6764;53.250;10.410;2023-11-22T09:00:46;4.00;99.90
13389;DHT22;6764;53.250;10.410;2023-11-22T09:03:12;4.20;99.90
13389;DHT22;6764;53.250;10.410;2023-11-22T09:05:42;4.20;99.90
13389;DHT22;6764;53.250;10.410;2023-11-22T09:08:08;4.10;99.90
13389;DHT22;6764;53.250;10.410;2023-11-22T09:10:38;4.20;99.90
13389;DHT22;6764;53.250;10.410;2023-11-22T09:13:05;4.30;99.90
13389;DHT22;6764;53.250;10.410;2023-11-22T09:15:31;4.30;99.90
13389;DHT22;6764;53.250;10.410;2023-11-22T09:17:59;4.30;99.90
13389;DHT22;6764;53.250;10.410;2023-11-22T09:20:25;4.40;99.90
13389;DHT22;6764;53.250;10.410;2023-11-22T09:22:52;4.50;99.90
13389;DHT22;6764;53.250;10.410;2023-11-22T09:25:25;4.50;99.90
13389;DHT22;6764;53.250;10.410;2023-11-22T09:27:53;4.60;99.90
13389;DHT22;6764;53.250;10.410;2023-11-22T09:30:26;4.60;99.90
13389;DHT22;6764;53.250;10.410;2023-11-22T09:35:27;4.60;99.90
13389;DHT22;6764;53.250;10.410;2023-11-22T09:38:04;4.50;99.90
13389;DHT22;6764;53.250;10.410;2023-11-22T09:40:30;4.40;99.90
13389;DHT22;6764;53.250;10.410;2023-11-22T09:42:59;4.40;99.90
13389;DHT22;6764;53.250;10.410;2023-11-22T09:45:27;4.70;99.90
13389;DHT22;6764;53.250;10.410;2023-11-22T09:47:55;4.70;99.90
13389;DHT22;6764;53.250;10.410;2023-11-22T09:50:26;4.80;99.90
13389;DHT22;6764;53.250;10.410;2023-11-22T09:52:59;4.90;99.90
13389;DHT22;6764;53.250;10.410;2023-11-22T09:55:28;4.90;99.90
13389;DHT22;6764;53.250;10.410;2023-11-22T09:57:54;5.00;99.90
13389;DHT22;6764;53.250;10.410;2023-11-22T10:00:22;4.90;99.90
13389;DHT22;6764;53.250;10.410;2023-11-22T10:02:50;4.90;99.90
13389;DHT22;6764;53.250;10.410;2023-11-22T10:05:16;5.00;99.90
13389;DHT22;6764;53.250;10.410;2023-11-22T10:07:41;5.10;99.90
13389;DHT22;6764;53.250;10.410;2023-11-22T10:10:08;5.10;99.90
13389;DHT22;6764;53.250;10.410;2023-11-22T10:12:36;5.10;99.90
13389;DHT22;6764;53.250;10.410;2023-11-22T10:15:16;5.20;99.90
13389;DHT22;6764;53.250;10.410;2023-11-22T10:17:58;4.90;99.90
13389;DHT22;6764;53.250;10.410;2023-11-22T10:20:44;4.90;99.90
13389;DHT22;6764;53.250;10.410;2023-11-22T10:23:17;5.10;99.90
13389;DHT22;6764;53.250;10.410;2023-11-22T10:25:50;4.90;99.90
13389;DHT22;6764;53.250;10.410;2023-11-22T10:28:20;5.00;99.90
13389;DHT22;6764;53.250;10.410;2023-11-22T10:30:46;5.00;99.90
13389;DHT22;6764;53.250;10.410;2023-11-22T10:33:14;5.00;99.90
13389;DHT22;6764;53.250;10.410;2023-11-22T10:35:49;5.10;99.90
13389;DHT22;6764;53.250;10.410;2023-11-22T10:38:17;5.10;99.90
13389;DHT22;6764;53.250;10.410;2023-11-22T10:40:43;5.10;99.90
13389;DHT22;6764;53.250;10.410;2023-11-22T10:43:14;4.90;99.90
13389;DHT22;6764;53.250;10.410;2023-11-22T10:45:44;5.00;99.90
13389;DHT22;6764;53.250;10.410;2023-11-22T10:48:14;4.90;99.90
13389;DHT22;6764;53.250;10.410;2023-11-22T10:50:48;5.00;99.90
13389;DHT22;6764;53.250;10.410;2023-11-22T10:53:20;5.00;99.90
13389;DHT22;6764;53.250;10.410;2023-11-22T10:55:48;5.00;99.90
13389;DHT22;6764;53.250;10.410;2023-11-22T10:58:15;5.10;99.90
13389;DHT22;6764;53.250;10.410;2023-11-22T11:00:41;5.10;99.90
13389;DHT22;6764;53.250;10.410;2023-11-22T11:03:28;5.10;99.90
13389;DHT22;6764;53.250;10.410;2023-11-22T11:05:59;5.30;99.90
13389;DHT22;6764;53.250;10.410;2023-11-22T11:08:30;5.40;99.90
13389;DHT22;6764;53.250;10.410;2023-11-22T11:10:57;5.40;99.90
13389;DHT22;6764;53.250;10.410;2023-11-22T11:13:24;5.50;99.90
13389;DHT22;6764;53.250;10.410;2023-11-22T11:15:52;5.60;99.90
13389;DHT22;6764;53.250;10.410;2023-11-22T11:18:18;5.70;99.90
13389;DHT22;6764;53.250;10.410;2023-11-22T11:23:22;5.70;99.90
13389;DHT22;6764;53.250;10.410;2023-11-22T11:25:49;5.60;99.90
13389;DHT22;6764;53.250;10.410;2023-11-22T11:28:15;5.60;99.90
13389;DHT22;6764;53.250;10.410;2023-11-22T11:33:18;5.80;99.90
13389;DHT22;6764;53.250;10.410;2023-11-22T11:35:46;5.90;99.90
13389;DHT22;6764;53.250;10.410;2023-11-22T11:38:14;5.80;99.90
13389;DHT22;6764;53.250;10.410;2023-11-22T11:40:44;5.70;99.90
13389;DHT22;6764;53.250;10.410;2023-11-22T11:43:11;5.70;99.90
13389;DHT22;6764;53.250;10.410;2023-11-22T11:45:39;5.80;99.90
13389;DHT22;6764;53.250;10.410;2023-11-22T11:48:06;5.80;99.90
13389;DHT22;6764;53.250;10.410;2023-11-22T11:50:32;5.80;99.90
13389;DHT22;6764;53.250;10.410;2023-11-22T11:52:58;5.80;99.90
13389;DHT22;6764;53.250;10.410;2023-11-22T11:55:25;5.70;99.90
13389;DHT22;6764;53.250;10.410;2023-11-22T11:57:54;5.60;99.90
13389;DHT22;6764;53.250;10.410;2023-11-22T12:00:20;5.40;99.90
13389;DHT22;6764;53.250;10.410;2023-11-22T12:02:49;5.40;99.90
13389;DHT22;6764;53.250;10.410;2023-11-22T12:05:14;5.40;99.90
13389;DHT22;6764;53.250;10.410;2023-11-22T12:07:40;5.40;99.90
13389;DHT22;6764;53.250;10.410;2023-11-22T12:10:06;5.50;99.90
13389;DHT22;6764;53.250;10.410;2023-11-22T12:12:33;5.40;99.90
13389;DHT22;6764;53.250;10.410;2023-11-22T12:14:59;5.50;99.90
13389;DHT22;6764;53.250;10.410;2023-11-22T12:17:26;5.60;99.90
13389;DHT22;6764;53.250;10.410;2023-11-22T12:19:53;5.60;99.90
13389;DHT22;6764;53.250;10.410;2023-11-22T12:22:19;5.60;99.90
13389;DHT22;6764;53.250;10.410;2023-11-22T12:24:46;5.60;99.90
13389;DHT22;6764;53.250;10.410;2023-11-22T12:27:11;5.50;99.90
13389;DHT22;6764;53.250;10.410;2023-11-22T12:29:37;5.50;99.90
13389;DHT22;6764;53.250;10.410;2023-11-22T12:32:03;5.50;99.90
13389;DHT22;6764;53.250;10.410;2023-11-22T12:34:29;5.50;99.90
13389;DHT22;6764;53.250;10.410;2023-11-22T12:36:56;5.40;99.90
13389;DHT22;6764;53.250;10.410;2023-11-22T12:39:22;5.40;99.90
13389;DHT22;6764;53.250;10.410;2023-11-22T12:41:50;5.60;99.90
13389;DHT22;6764;53.250;10.410;2023-11-22T12:44:16;5.50;99.90
13389;DHT22;6764;53.250;10.410;2023-11-22T12:46:51;5.50;99.90
13389;DHT22;6764;53.250;10.410;2023-11-22T12:49:43;5.30;99.90
13389;DHT22;6764;53.250;10.410;2023-11-22T12:52:11;5.50;99.90
13389;DHT22;6764;53.250;10.410;2023-11-22T12:54:37;5.60;99.90
13389;DHT22;6764;53.250;10.410;2023-11-22T12:57:09;5.50;99.90
13389;DHT22;6764;53.250;10.410;2023-11-22T12:59:35;5.60;99.90
13389;DHT22;6764;53.250;10.410;2023-11-22T13:02:01;5.60;99.90
13389;DHT22;6764;53.250;10.410;2023-11-22T13:04:27;5.60;99.90
13389;DHT22;6764;53.250;10.410;2023-11-22T13:06:54;5.70;99.90
13389;DHT22;6764;53.250;10.410;2023-11-22T13:09:20;5.60;99.90
13389;DHT22;6764;53.250;10.410;2023-11-22T13:11:46;5.60;99.90
13389;DHT22;6764;53.250;10.410;2023-11-22T13:14:12;5.50;99.90
13389;DHT22;6764;53.250;10.410;2023-11-22T13:16:41;5.40;99.90
13389;DHT22;6764;53.250;10.410;2023-11-22T13:19:08;5.50;99.90
13389;DHT22;6764;53.250;10.410;2023-11-22T13:21:34;5.50;99.90
13389;DHT22;6764;53.250;10.410;2023-11-22T13:24:00;5.40;99.90
13389;DHT22;6764;53.250;10.410;2023-11-22T13:26:26;5.50;99.90
13389;DHT22;6764;53.250;10.410;2023-11-22T13:28:52;5.50;99.90
13389;DHT22;6764;53.250;10.410;2023-11-22T13:31:22;5.50;99.90
13389;DHT22;6764;53.250;10.410;2023-11-22T13:33:49;5.50;99.90
13389;DHT22;6764;53.250;10.410;2023-11-22T13:36:16;5.50;99.90
13389;DHT22;6764;53.250;10.410;2023-11-22T13:38:41;5.40;99.90
13389;DHT22;6764;53.250;10.410;2023-11-22T13:41:07;5.50;99.90
13389;DHT22;6764;53.250;10.410;2023-11-22T13:43:32;5.30;99.90
13389;DHT22;6764;53.250;10.410;2023-11-22T13:46:00;5.40;99.90
13389;DHT22;6764;53.250;10.410;2023-11-22T13:48:25;5.40;99.90
13389;DHT22;6764;53.250;10.410;2023-11-22T13:50:51;5.40;99.90
13389;DHT22;6764;53.250;10.410;2023-11-22T13:53:17;5.50;99.90
13389;DHT22;6764;53.250;10.410;2023-11-22T13:55:48;5.40;99.90
13389;DHT22;6764;53.250;10.410;2023-11-22T13:58:15;5.50;99.90
13389;DHT22;6764;53.250;10.410;2023-11-22T14:00:41;5.60;99.90
13389;DHT22;6764;53.250;10.410;2023-11-22T14:03:07;5.50;99.90
13389;DHT22;6764;53.250;10.410;2023-11-22T14:05:34;5.40;99.90
13389;DHT22;6764;53.250;10.410;2023-11-22T14:08:02;5.30;99.90
13389;DHT22;6764;53.250;10.410;2023-11-22T14:10:27;5.30;99.90
13389;DHT22;6764;53.250;10.410;2023-11-22T14:12:54;5.30;99.90
13389;DHT22;6764;53.250;10.410;2023-11-22T14:15:19;5.40;99.90
13389;DHT22;6764;53.250;10.410;2023-11-22T14:17:45;5.30;99.90
13389;DHT22;6764;53.250;10.410;2023-11-22T14:20:15;5.30;99.90
13389;DHT22;6764;53.250;10.410;2023-11-22T14:22:42;5.30;99.90
13389;DHT22;6764;53.250;10.410;2023-11-22T14:25:10;5.20;99.90
13389;DHT22;6764;53.250;10.410;2023-11-22T14:27:41;5.20;99.90
13389;DHT22;6764;53.250;10.410;2023-11-22T14:30:08;5.20;99.90
13389;DHT22;6764;53.250;10.410;2023-11-22T14:32:35;5.10;99.90
13389;DHT22;6764;53.250;10.410;2023-11-22T14:35:02;5.20;99.90
13389;DHT22;6764;53.250;10.410;2023-11-22T14:37:28;5.20;99.90
13389;DHT22;6764;53.250;10.410;2023-11-22T14:39:54;5.20;99.90
13389;DHT22;6764;53.250;10.410;2023-11-22T14:42:20;5.30;99.90
13389;DHT22;6764;53.250;10.410;2023-11-22T14:44:45;5.30;99.90
13389;DHT22;6764;53.250;10.410;2023-11-22T14:47:11;5.20;99.90
13389;DHT22;6764;53.250;10.410;2023-11-22T14:49:49;5.00;99.90
13389;DHT22;6764;53.250;10.410;2023-11-22T14:52:14;5.00;99.90
13389;DHT22;6764;53.250;10.410;2023-11-22T14:54:44;5.00;99.90
13389;DHT22;6764;53.250;10.410;2023-11-22T14:57:10;5.00;99.90
13389;DHT22;6764;53.250;10.410;2023-11-22T14:59:38;5.00;99.90
13389;DHT22;6764;53.250;10.410;2023-11-22T15:02:04;4.90;99.90
13389;DHT22;6764;53.250;10.410;2023-11-22T15:04:33;4.90;99.90
13389;DHT22;6764;53.250;10.410;2023-11-22T15:07:01;4.80;99.90
13389;DHT22;6764;53.250;10.410;2023-11-22T15:09:27;4.80;99.90
13389;DHT22;6764;53.250;10.410;2023-11-22T15:15:23;4.70;99.90
13389;DHT22;6764;53.250;10.410;2023-11-22T15:17:51;4.80;99.90
13389;DHT22;6764;53.250;10.410;2023-11-22T15:20:16;4.70;99.90
13389;DHT22;6764;53.250;10.410;2023-11-22T15:22:42;4.70;99.90
13389;DHT22;6764;53.250;10.410;2023-11-22T15:25:08;4.70;99.90
13389;DHT22;6764;53.250;10.410;2023-11-22T15:27:35;4.70;99.90
13389;DHT22;6764;53.250;10.410;2023-11-22T15:30:01;4.80;99.90
13389;DHT22;6764;53.250;10.410;2023-11-22T15:32:28;4.90;99.90
13389;DHT22;6764;53.250;10.410;2023-11-22T15:34:54;4.80;99.90
13389;DHT22;6764;53.250;10.410;2023-11-22T15:37:19;4.80;99.90
13389;DHT22;6764;53.250;10.410;2023-11-22T15:39:45;4.80;99.90
13389;DHT22;6764;53.250;10.410;2023-11-22T15:42:11;4.80;99.90
13389;DHT22;6764;53.250;10.410;2023-11-22T15:44:37;4.70;99.90
13389;DHT22;6764;53.250;10.410;2023-11-22T15:47:02;4.70;99.90
13389;DHT22;6764;53.250;10.410;2023-11-22T15:49:34;4.70;99.90
13389;DHT22;6764;53.250;10.410;2023-11-22T15:52:00;4.70;99.90
13389;DHT22;6764;53.250;10.410;2023-11-22T15:54:26;4.70;99.90